createdAt,value
2023-04-05T00:01:16.012Z,10.57
2023-04-05T00:03:44.217Z,9.40
2023-04-05T00:06:13.491Z,10.00
2023-04-05T00:08:44.507Z,9.95
2023-04-05T00:11:13.002Z,7.35
2023-04-05T00:13:41.389Z,11.10
2023-04-05T00:16:09.609Z,9.38
2023-04-05T00:18:38.757Z,12.25
2023-04-05T00:21:07.635Z,12.43
2023-04-05T00:23:39.855Z,11.10
2023-04-05T00:26:08.309Z,14.30
2023-04-05T00:28:37.616Z,8.38
2023-04-05T00:31:06.858Z,9.63
2023-04-05T00:33:35.648Z,9.88
2023-04-05T00:36:17.989Z,10.98
2023-04-05T00:38:47.890Z,9.18
2023-04-05T00:41:16.380Z,9.10
2023-04-05T00:43:45.095Z,11.93
2023-04-05T00:46:13.779Z,7.93
2023-04-05T00:48:42.010Z,7.72
2023-04-05T00:51:11.990Z,11.50
2023-04-05T00:53:41.104Z,9.90
2023-04-05T00:56:10.444Z,9.73
2023-04-05T00:58:41.824Z,9.43
2023-04-05T01:01:22.689Z,11.02
2023-04-05T01:03:59.899Z,8.35
2023-04-05T01:06:59.975Z,8.52
2023-04-05T01:09:57.670Z,8.35
2023-04-05T01:12:32.260Z,12.18
2023-04-05T01:15:01.421Z,8.63
2023-04-05T01:17:37.063Z,9.68
2023-04-05T01:20:11.918Z,11.85
2023-04-05T01:22:49.438Z,8.32
2023-04-05T01:26:06.366Z,8.52
2023-04-05T01:29:10.982Z,8.93
2023-04-05T01:31:47.367Z,9.13
2023-04-05T01:34:32.726Z,9.13
2023-04-05T01:37:08.521Z,9.93
2023-04-05T01:39:37.636Z,9.10
2023-04-05T01:42:08.160Z,12.45
2023-04-05T01:44:36.498Z,10.00
2023-04-05T01:47:04.533Z,8.10
2023-04-05T01:49:32.481Z,7.25
2023-04-05T01:52:00.506Z,8.55
2023-04-05T01:54:29.025Z,7.22
2023-04-05T01:56:58.258Z,7.30
2023-04-05T01:59:26.873Z,9.10
2023-04-05T02:01:55.514Z,7.07
2023-04-05T02:04:23.789Z,7.88
2023-04-05T02:06:52.802Z,6.97
2023-04-05T02:09:21.153Z,9.00
2023-04-05T02:11:49.627Z,10.88
2023-04-05T02:14:17.669Z,6.53
2023-04-05T02:17:06.499Z,7.47
2023-04-05T02:19:40.915Z,6.18
2023-04-05T02:22:10.035Z,6.35
2023-04-05T02:24:38.334Z,9.05
2023-04-05T02:27:08.145Z,7.57
2023-04-05T02:29:38.149Z,9.13
2023-04-05T02:32:06.761Z,9.50
2023-04-05T02:34:37.088Z,7.28
2023-04-05T02:37:05.537Z,6.53
2023-04-05T02:39:34.767Z,8.73
2023-04-05T02:42:03.410Z,7.60
2023-04-05T02:44:31.598Z,11.30
2023-04-05T02:47:00.047Z,5.47
2023-04-05T02:49:32.494Z,10.25
2023-04-05T02:52:04.315Z,6.70
2023-04-05T02:54:33.106Z,5.70
2023-04-05T02:57:04.225Z,8.57
2023-04-05T03:00:08.769Z,7.45
2023-04-05T03:02:37.801Z,9.55
2023-04-05T03:05:07.999Z,5.82
2023-04-05T03:07:38.442Z,6.85
2023-04-05T03:10:10.952Z,7.50
2023-04-05T03:12:41.760Z,8.13
2023-04-05T03:15:12.066Z,9.35
2023-04-05T03:17:44.684Z,7.43
2023-04-05T03:20:15.070Z,9.63
2023-04-05T03:22:44.067Z,9.90
2023-04-05T03:25:13.577Z,9.70
2023-04-05T03:27:48.049Z,10.45
2023-04-05T03:30:18.957Z,5.82
2023-04-05T03:33:03.132Z,8.93
2023-04-05T03:36:01.272Z,8.02
2023-04-05T03:38:35.312Z,7.53
2023-04-05T03:41:16.580Z,6.47
2023-04-05T03:43:45.921Z,8.63
2023-04-05T03:46:14.552Z,8.85
2023-04-05T03:48:42.876Z,10.23
2023-04-05T03:51:11.906Z,10.75
2023-04-05T03:53:40.090Z,7.88
2023-04-05T03:56:08.817Z,11.27
2023-04-05T03:58:55.140Z,10.77
2023-04-05T04:01:27.236Z,10.32
2023-04-05T04:03:56.073Z,6.68
2023-04-05T04:06:27.324Z,6.70
2023-04-05T04:08:57.231Z,6.03
2023-04-05T04:11:26.069Z,6.15
2023-04-05T04:13:54.286Z,6.95
2023-04-05T04:16:36.229Z,8.35
2023-04-05T04:19:28.190Z,6.72
2023-04-05T04:22:20.898Z,4.50
2023-04-05T04:25:26.687Z,8.27
2023-04-05T04:28:21.392Z,7.90
2023-04-05T04:31:25.205Z,11.40
2023-04-05T04:34:14.716Z,6.35
2023-04-05T04:37:00.865Z,10.07
2023-04-05T04:39:49.586Z,8.38
2023-04-05T04:42:47.725Z,7.53
2023-04-05T04:45:38.145Z,7.95
2023-04-05T04:48:26.861Z,8.32
2023-04-05T04:51:06.655Z,10.50
2023-04-05T04:53:37.267Z,8.10
2023-04-05T04:56:09.327Z,13.73
2023-04-05T04:58:37.384Z,10.13
2023-04-05T05:01:10.192Z,11.15
2023-04-05T05:03:39.181Z,9.88
2023-04-05T05:06:08.931Z,9.80
2023-04-05T05:08:38.333Z,8.65
2023-04-05T05:11:32.236Z,8.85
2023-04-05T05:14:00.700Z,6.50
2023-04-05T05:16:30.401Z,6.85
2023-04-05T05:18:59.129Z,7.95
2023-04-05T05:21:32.758Z,6.03
2023-04-05T05:24:03.660Z,6.05
2023-04-05T05:26:31.711Z,8.50
2023-04-05T05:29:03.142Z,7.00
2023-04-05T05:31:34.548Z,7.53
2023-04-05T05:34:02.973Z,8.00
2023-04-05T05:36:32.154Z,7.50
2023-04-05T05:39:00.980Z,9.02
2023-04-05T05:41:29.534Z,5.70
2023-04-05T05:43:57.832Z,5.75
2023-04-05T05:46:27.410Z,8.05
2023-04-05T05:48:55.626Z,5.80
2023-04-05T05:51:23.974Z,7.75
2023-04-05T05:53:52.223Z,6.25
2023-04-05T05:56:21.093Z,7.20
2023-04-05T05:58:49.419Z,6.32
2023-04-05T06:01:17.740Z,5.40
2023-04-05T06:03:46.743Z,7.05
2023-04-05T06:06:15.206Z,8.23
2023-04-05T06:08:43.988Z,4.93
2023-04-05T06:11:23.106Z,6.15
2023-04-05T06:13:52.729Z,5.97
2023-04-05T06:16:21.451Z,6.35
2023-04-05T06:18:50.525Z,4.95
2023-04-05T06:21:18.518Z,6.05
2023-04-05T06:23:46.622Z,5.32
2023-04-05T06:26:24.484Z,5.05
2023-04-05T06:28:53.674Z,5.47
2023-04-05T06:31:27.609Z,5.82
2023-04-05T06:33:56.041Z,9.30
2023-04-05T06:36:25.550Z,7.70
2023-04-05T06:38:55.961Z,7.88
2023-04-05T06:41:24.817Z,8.88
2023-04-05T06:43:52.967Z,8.40
2023-04-05T06:46:21.154Z,8.05
2023-04-05T06:48:50.075Z,10.55
2023-04-05T06:51:19.222Z,9.05
2023-04-05T06:53:48.177Z,9.85
2023-04-05T06:56:16.815Z,9.20
2023-04-05T06:58:45.218Z,12.25
2023-04-05T07:01:13.861Z,11.10
2023-04-05T07:03:42.203Z,10.20
2023-04-05T07:06:12.052Z,10.73
2023-04-05T07:08:40.165Z,10.90
2023-04-05T07:11:08.728Z,9.63
2023-04-05T07:13:36.698Z,9.13
2023-04-05T07:16:04.878Z,9.98
2023-04-05T07:18:33.963Z,11.38
2023-04-05T07:21:04.177Z,11.30
2023-04-05T07:23:33.119Z,12.27
2023-04-05T07:26:08.486Z,11.38
2023-04-05T07:28:37.092Z,10.40
2023-04-05T07:31:06.949Z,9.05
2023-04-05T07:33:35.733Z,8.20
2023-04-05T07:36:04.919Z,10.02
2023-04-05T07:38:33.893Z,7.82
2023-04-05T07:41:01.909Z,6.72
2023-04-05T07:43:30.705Z,5.43
2023-04-05T07:46:06.107Z,6.43
2023-04-05T07:48:34.320Z,6.95
2023-04-05T07:51:08.742Z,7.47
2023-04-05T07:53:37.926Z,10.25
2023-04-05T07:56:16.484Z,10.27
2023-04-05T07:58:44.884Z,10.40
2023-04-05T08:01:13.538Z,11.75
2023-04-05T08:03:42.239Z,16.05
2023-04-05T08:06:14.841Z,15.98
2023-04-05T08:08:43.266Z,14.50
2023-04-05T08:11:12.997Z,11.43
2023-04-05T08:13:42.012Z,10.57
2023-04-05T08:16:11.874Z,12.45
2023-04-05T08:18:40.037Z,11.20
2023-04-05T08:21:08.483Z,11.35
2023-04-05T08:23:37.292Z,10.20
2023-04-05T08:26:07.915Z,8.35
2023-04-05T08:28:36.364Z,9.43
2023-04-05T08:31:04.849Z,9.60
2023-04-05T08:33:33.220Z,8.93
2023-04-05T08:36:07.276Z,9.25
2023-04-05T08:38:36.929Z,9.32
2023-04-05T08:41:23.725Z,10.30
2023-04-05T08:44:02.721Z,11.02
2023-04-05T08:46:33.240Z,11.55
2023-04-05T08:49:11.740Z,11.00
2023-04-05T08:51:40.488Z,12.27
2023-04-05T08:54:09.061Z,11.90
2023-04-05T08:56:39.049Z,14.25
2023-04-05T08:59:35.627Z,12.55
2023-04-05T09:02:18.430Z,12.55
2023-04-05T09:04:48.735Z,10.67
2023-04-05T09:07:17.787Z,11.95
2023-04-05T09:09:53.546Z,12.40
2023-04-05T09:12:25.820Z,11.90
2023-04-05T09:14:55.411Z,10.02
2023-04-05T09:17:24.001Z,11.45
2023-04-05T09:19:53.045Z,11.50
2023-04-05T09:22:24.055Z,16.65
2023-04-05T09:24:52.594Z,12.93
2023-04-05T09:27:23.960Z,13.05
2023-04-05T09:29:57.910Z,9.23
2023-04-05T09:32:28.534Z,10.73
2023-04-05T09:35:04.789Z,8.88
2023-04-05T09:37:35.827Z,10.68
2023-04-05T09:40:07.237Z,10.18
2023-04-05T09:42:47.608Z,8.85
2023-04-05T09:45:18.459Z,8.57
2023-04-05T09:47:59.452Z,8.60
2023-04-05T09:50:28.552Z,9.38
2023-04-05T09:53:16.585Z,9.32
2023-04-05T09:55:47.399Z,9.57
2023-04-05T09:58:22.112Z,8.75
2023-04-05T10:01:00.056Z,8.90
2023-04-05T10:03:32.202Z,11.40
2023-04-05T10:06:01.808Z,8.93
2023-04-05T10:08:29.911Z,11.50
2023-04-05T10:10:59.224Z,9.73
2023-04-05T10:13:28.022Z,11.13
2023-04-05T10:15:58.344Z,13.38
2023-04-05T10:18:39.527Z,9.38
2023-04-05T10:21:12.589Z,9.60
2023-04-05T10:23:47.124Z,10.73
2023-04-05T10:26:41.487Z,10.65
2023-04-05T10:29:17.292Z,11.95
2023-04-05T10:31:59.667Z,11.00
2023-04-05T10:34:45.557Z,15.73
2023-04-05T10:37:37.180Z,17.27
2023-04-05T10:40:11.276Z,11.10
2023-04-05T10:42:44.453Z,10.35
2023-04-05T10:45:19.722Z,10.38
2023-04-05T10:48:07.111Z,11.32
2023-04-05T10:50:37.309Z,11.52
2023-04-05T10:53:06.518Z,9.27
2023-04-05T10:55:35.845Z,10.90
2023-04-05T10:58:04.395Z,9.52
2023-04-05T11:00:34.259Z,12.45
2023-04-05T11:03:02.820Z,12.00
2023-04-05T11:05:36.297Z,10.95
2023-04-05T11:08:07.838Z,13.90
2023-04-05T11:10:37.773Z,13.32
2023-04-05T11:13:10.748Z,14.70
2023-04-05T11:15:39.951Z,11.50
2023-04-05T11:18:11.254Z,13.23
2023-04-05T11:20:43.598Z,11.50
2023-04-05T11:23:13.632Z,10.10
2023-04-05T11:25:47.894Z,11.30
2023-04-05T11:28:26.031Z,13.10
2023-04-05T11:31:04.581Z,14.23
2023-04-05T11:33:42.810Z,13.70
2023-04-05T11:36:13.139Z,11.20
2023-04-05T11:38:44.179Z,10.60
2023-04-05T11:41:21.146Z,13.05
2023-04-05T11:43:52.732Z,9.48
2023-04-05T11:46:22.534Z,11.25
2023-04-05T11:48:51.372Z,11.95
2023-04-05T11:51:23.141Z,14.48
2023-04-05T11:53:51.151Z,12.48
2023-04-05T11:56:20.308Z,12.18
2023-04-05T11:58:49.465Z,9.57
2023-04-05T12:01:21.012Z,11.05
2023-04-05T12:03:55.649Z,9.65
2023-04-05T12:06:25.121Z,12.98
2023-04-05T12:08:56.013Z,11.15
2023-04-05T12:11:31.208Z,13.63
2023-04-05T12:14:02.410Z,14.68
2023-04-05T12:16:31.027Z,14.63
2023-04-05T12:19:00.509Z,12.48
2023-04-05T12:21:29.023Z,13.52
2023-04-05T12:23:58.343Z,12.93
2023-04-05T12:26:27.167Z,12.95
2023-04-05T12:28:57.958Z,11.50
2023-04-05T12:31:38.344Z,16.60
2023-04-05T12:34:08.188Z,15.88
2023-04-05T12:36:37.487Z,19.85
2023-04-05T12:39:08.202Z,13.90
2023-04-05T12:41:37.696Z,12.68
2023-04-05T12:44:06.840Z,14.30
2023-04-05T12:46:41.383Z,15.27
2023-04-05T12:49:16.890Z,15.55
2023-04-05T12:51:47.472Z,13.55
2023-04-05T12:54:24.604Z,14.80
2023-04-05T12:56:54.743Z,12.77
2023-04-05T12:59:23.876Z,14.60
2023-04-05T13:01:53.134Z,14.38
2023-04-05T13:04:23.238Z,13.70
2023-04-05T13:06:51.401Z,14.55
2023-04-05T13:09:19.584Z,16.63
2023-04-05T13:11:48.042Z,19.83
2023-04-05T13:14:16.213Z,17.33
2023-04-05T13:16:44.870Z,15.18
2023-04-05T13:19:13.069Z,18.35
2023-04-05T13:21:42.560Z,15.60
2023-04-05T13:24:12.887Z,15.75
2023-04-05T13:26:41.651Z,18.85
2023-04-05T13:29:09.766Z,15.88
2023-04-05T13:31:38.260Z,18.45
2023-04-05T13:34:07.221Z,17.20
2023-04-05T13:36:36.245Z,15.23
2023-04-05T13:39:04.340Z,16.70
2023-04-05T13:41:32.531Z,14.52
2023-04-05T13:44:02.374Z,20.70
2023-04-05T13:46:31.507Z,19.20
2023-04-05T13:49:00.462Z,18.52
2023-04-05T13:51:32.536Z,19.58
2023-04-05T13:54:01.673Z,19.55
2023-04-05T13:56:30.401Z,20.23
2023-04-05T13:58:58.350Z,21.50
2023-04-05T14:01:27.497Z,22.42
2023-04-05T14:03:56.417Z,18.75
2023-04-05T14:06:25.600Z,20.08
2023-04-05T14:08:55.419Z,21.02
2023-04-05T14:11:49.176Z,17.48
2023-04-05T14:16:45.972Z,17.70
2023-04-05T14:19:16.471Z,11.18
2023-04-05T14:21:45.961Z,13.27
2023-04-05T14:24:14.058Z,8.98
2023-04-05T14:26:46.018Z,11.23
2023-04-05T14:29:14.057Z,7.75
2023-04-05T14:31:42.897Z,11.70
2023-04-05T14:34:12.637Z,7.63
2023-04-05T14:36:41.421Z,9.75
2023-04-05T14:39:10.077Z,17.73
2023-04-05T14:41:38.921Z,18.15
2023-04-05T14:44:32.946Z,23.42
2023-04-05T14:47:01.328Z,20.70
2023-04-05T14:49:29.816Z,22.65
2023-04-05T14:51:58.587Z,22.25
2023-04-05T14:54:27.274Z,19.10
2023-04-05T14:56:56.326Z,19.05
2023-04-05T14:59:26.447Z,14.95
2023-04-05T15:01:54.764Z,16.17
2023-04-05T15:04:23.276Z,17.02
2023-04-05T15:06:52.256Z,18.77
2023-04-05T15:09:20.568Z,23.70
2023-04-05T15:11:48.536Z,19.67
2023-04-05T15:14:28.905Z,22.52
2023-04-05T15:17:00.122Z,23.42
2023-04-05T15:19:30.793Z,21.45
2023-04-05T15:21:59.583Z,22.08
2023-04-05T15:24:27.644Z,18.48
2023-04-05T15:27:02.020Z,21.70
2023-04-05T15:29:31.145Z,18.27
2023-04-05T15:32:03.265Z,19.02
2023-04-05T15:34:31.757Z,16.10
2023-04-05T15:37:00.557Z,18.02
2023-04-05T15:39:28.533Z,17.60
2023-04-05T15:41:57.915Z,15.68
2023-04-05T15:44:26.801Z,17.00
2023-04-05T15:46:55.383Z,14.82
2023-04-05T15:49:24.256Z,17.05
2023-04-05T15:51:52.407Z,15.85
2023-04-05T15:54:21.149Z,14.38
2023-04-05T15:56:49.362Z,19.17
2023-04-05T15:59:17.880Z,20.42
2023-04-05T16:01:46.424Z,17.67
2023-04-05T16:04:14.527Z,17.25
2023-04-05T16:06:43.217Z,15.93
2023-04-05T16:09:11.495Z,17.58
2023-04-05T16:11:40.071Z,20.40
2023-04-05T16:14:11.381Z,15.88
2023-04-05T16:16:50.081Z,16.27
2023-04-05T16:19:22.640Z,17.23
2023-04-05T16:21:53.028Z,17.45
2023-04-05T16:24:21.789Z,16.02
2023-04-05T16:26:50.495Z,21.05
2023-04-05T16:29:18.708Z,17.83
2023-04-05T16:31:48.445Z,19.00
2023-04-05T16:34:16.543Z,15.98
2023-04-05T16:36:45.037Z,14.55
2023-04-05T16:39:13.814Z,16.02
2023-04-05T16:41:42.056Z,15.32
2023-04-05T16:44:11.033Z,14.23
2023-04-05T16:46:40.013Z,13.48
2023-04-05T16:49:08.461Z,17.60
2023-04-05T16:51:37.490Z,17.95
2023-04-05T16:54:05.988Z,16.13
2023-04-05T16:56:34.222Z,15.90
2023-04-05T16:59:05.060Z,15.48
2023-04-05T17:01:35.137Z,20.52
2023-04-05T17:04:03.135Z,15.57
2023-04-05T17:06:32.656Z,15.27
2023-04-05T17:09:01.323Z,14.93
2023-04-05T17:11:31.040Z,19.70
2023-04-05T17:13:59.888Z,20.35
2023-04-05T17:16:28.335Z,19.33
2023-04-05T17:18:57.037Z,19.67
2023-04-05T17:21:25.977Z,17.60
2023-04-05T17:23:54.401Z,15.55
2023-04-05T17:26:24.090Z,17.67
2023-04-05T17:28:52.669Z,13.10
2023-04-05T17:31:21.593Z,15.63
2023-04-05T17:33:50.162Z,22.83
2023-04-05T17:36:18.571Z,19.05
2023-04-05T17:38:46.959Z,21.15
2023-04-05T17:41:15.516Z,19.65
2023-04-05T17:43:43.574Z,16.90
2023-04-05T17:46:14.026Z,14.50
2023-04-05T17:48:42.494Z,16.83
2023-04-05T17:51:11.479Z,17.60
2023-04-05T17:53:39.782Z,21.02
2023-04-05T17:56:07.877Z,19.80
2023-04-05T17:58:36.440Z,19.10
2023-04-05T18:01:04.478Z,22.17
2023-04-05T18:03:33.717Z,27.13
2023-04-05T18:06:02.179Z,23.35
2023-04-05T18:08:30.990Z,27.05
2023-04-05T18:11:00.372Z,24.42
2023-04-05T18:13:28.644Z,28.83
2023-04-05T18:15:59.151Z,26.35
2023-04-05T18:18:33.212Z,36.90
2023-04-05T18:21:02.196Z,41.83
2023-04-05T18:23:31.335Z,39.97
2023-04-05T18:26:07.842Z,29.52
2023-04-05T18:28:36.295Z,31.73
2023-04-05T18:31:05.186Z,29.70
2023-04-05T18:33:33.674Z,22.98
2023-04-05T18:36:03.179Z,23.92
2023-04-05T18:38:31.874Z,23.48
2023-04-05T18:41:07.183Z,24.35
2023-04-05T18:43:35.363Z,28.60
2023-04-05T18:46:04.004Z,24.58
2023-04-05T18:48:34.065Z,23.20
2023-04-05T18:51:02.446Z,25.30
2023-04-05T18:53:31.139Z,20.13
2023-04-05T18:55:59.420Z,19.00
2023-04-05T18:58:28.420Z,20.50
2023-04-05T19:00:56.822Z,22.80
2023-04-05T19:03:25.500Z,19.35
2023-04-05T19:05:54.530Z,26.20
2023-04-05T19:08:22.998Z,18.17
2023-04-05T19:10:51.726Z,24.58
2023-04-05T19:13:19.964Z,33.90
2023-04-05T19:15:48.463Z,25.88
2023-04-05T19:18:16.934Z,23.02
2023-04-05T19:20:45.107Z,28.50
2023-04-05T19:23:13.519Z,29.85
2023-04-05T19:25:42.555Z,27.60
2023-04-05T19:28:11.321Z,29.98
2023-04-05T19:30:43.660Z,26.23
2023-04-05T19:33:12.979Z,29.60
2023-04-05T19:35:42.212Z,26.88
2023-04-05T19:38:14.217Z,23.58
2023-04-05T19:40:43.515Z,41.30
2023-04-05T19:43:13.343Z,34.55
2023-04-05T19:45:42.446Z,32.13
2023-04-05T19:48:36.847Z,23.73
2023-04-05T19:51:07.227Z,21.35
2023-04-05T19:53:44.246Z,25.88
2023-04-05T19:56:23.743Z,26.42
2023-04-05T19:58:58.859Z,23.73
2023-04-05T20:01:36.908Z,24.58
2023-04-05T20:04:16.584Z,27.95
2023-04-05T20:06:54.181Z,25.48
2023-04-05T20:09:31.041Z,22.48
2023-04-05T20:12:02.619Z,23.40
2023-04-05T20:14:36.467Z,25.33
2023-04-05T20:17:05.160Z,19.70
2023-04-05T20:19:34.264Z,25.05
2023-04-05T20:22:06.430Z,24.98
2023-04-05T20:24:37.915Z,32.28
2023-04-05T20:27:06.126Z,38.45
2023-04-05T20:29:36.194Z,35.72
2023-04-05T20:32:06.576Z,40.95
2023-04-05T20:34:38.074Z,42.25
2023-04-05T20:37:07.961Z,44.30
2023-04-05T20:39:35.947Z,49.22
2023-04-05T20:42:05.144Z,38.88
2023-04-05T20:44:34.096Z,38.40
2023-04-05T20:47:03.196Z,39.83
2023-04-05T20:49:32.162Z,41.03
2023-04-05T20:52:03.104Z,34.50
2023-04-05T20:54:31.662Z,30.27
2023-04-05T20:57:00.136Z,24.50
2023-04-05T20:59:29.028Z,25.58
2023-04-05T21:01:57.683Z,24.00
2023-04-05T21:04:29.352Z,25.05
2023-04-05T21:06:58.596Z,21.48
2023-04-05T21:09:27.875Z,22.13
2023-04-05T21:11:56.865Z,25.83
2023-04-05T21:14:25.338Z,34.30
2023-04-05T21:16:53.287Z,27.77
2023-04-05T21:19:22.184Z,28.23
2023-04-05T21:21:50.965Z,26.35
2023-04-05T21:24:19.573Z,25.65
2023-04-05T21:26:47.892Z,23.05
2023-04-05T21:29:16.035Z,23.83
2023-04-05T21:31:44.676Z,23.73
2023-04-05T21:34:12.699Z,20.45
2023-04-05T21:36:41.542Z,22.15
2023-04-05T21:39:10.047Z,20.67
2023-04-05T21:41:38.388Z,22.17
2023-04-05T21:44:07.025Z,18.98
2023-04-05T21:46:35.218Z,19.25
2023-04-05T21:49:04.956Z,18.05
2023-04-05T21:51:33.716Z,17.85
2023-04-05T21:54:02.139Z,17.08
2023-04-05T21:56:30.524Z,20.27
2023-04-05T21:58:59.127Z,18.75
2023-04-05T22:01:27.913Z,25.23
2023-04-05T22:03:56.551Z,24.23
2023-04-05T22:06:25.061Z,23.77
2023-04-05T22:08:54.815Z,19.98
2023-04-05T22:11:25.161Z,17.38
2023-04-05T22:13:54.160Z,21.88
2023-04-05T22:16:22.836Z,22.10
2023-04-05T22:18:51.128Z,21.70
2023-04-05T22:21:19.663Z,25.88
2023-04-05T22:23:48.476Z,21.00
2023-04-05T22:26:17.131Z,23.05
2023-04-05T22:28:45.900Z,22.45
2023-04-05T22:31:14.984Z,23.50
2023-04-05T22:33:42.960Z,22.33
2023-04-05T22:36:11.468Z,19.45
2023-04-05T22:38:39.546Z,19.70
2023-04-05T22:41:08.562Z,16.60
2023-04-05T22:43:37.189Z,20.63
2023-04-05T22:46:05.664Z,17.20
2023-04-05T22:48:34.132Z,16.10
2023-04-05T22:51:02.437Z,17.23
2023-04-05T22:53:30.739Z,18.92
2023-04-05T22:55:59.667Z,18.77
2023-04-05T22:58:30.670Z,22.00
2023-04-05T23:00:58.939Z,21.27
2023-04-05T23:03:26.884Z,23.05
2023-04-05T23:05:54.991Z,19.35
2023-04-05T23:08:23.246Z,20.10
2023-04-05T23:10:51.405Z,20.42
2023-04-05T23:13:20.706Z,18.20
2023-04-05T23:15:49.268Z,15.38
2023-04-05T23:18:22.155Z,16.13
2023-04-05T23:20:51.468Z,16.50
2023-04-05T23:23:20.856Z,18.20
2023-04-05T23:25:48.903Z,15.45
2023-04-05T23:28:16.969Z,14.68
2023-04-05T23:30:45.375Z,10.60
2023-04-05T23:33:14.453Z,12.15
2023-04-05T23:35:43.041Z,14.18
2023-04-05T23:38:11.482Z,13.38
2023-04-05T23:40:40.162Z,13.95
2023-04-05T23:43:09.196Z,17.08
2023-04-05T23:45:37.660Z,16.75
2023-04-05T23:48:06.595Z,14.75
2023-04-05T23:50:34.565Z,17.75
2023-04-05T23:53:03.009Z,14.07
2023-04-05T23:55:32.647Z,13.73
2023-04-05T23:58:01.530Z,15.88
